Time;durP1;ratioP1;P1;durP2;ratioP2;P2;SDS_P1;SDS_P2;PMS_P1;PMS_P2;Temp;Humidity;BMP_temperature;BMP_pressure;BME280_temperature;BME280_humidity;BME280_pressure;Samples;Min_cycle;Max_cycle;Signal;HPM_P1;HPM_P2
2022/12/20 00:01:46;;;;;;;20.73;13.00;;;;;;;1.28;99.15;102220.19;5086352;28;20032;-73
2022/12/20 00:04:11;;;;;;;22.55;12.63;;;;;;;1.26;99.23;102219.38;5085484;28;20383;-73
2022/12/20 00:06:37;;;;;;;23.75;12.65;;;;;;;1.25;100.00;102220.25;5085274;28;20035;-73
2022/12/20 00:09:05;;;;;;;22.05;12.98;;;;;;;1.22;99.75;102216.03;5093249;28;20124;-73
2022/12/20 00:11:31;;;;;;;26.15;13.57;;;;;;;1.24;100.00;102216.84;5080578;28;20462;-73
2022/12/20 00:13:57;;;;;;;21.63;12.68;;;;;;;1.25;100.00;102222.81;5091666;28;20040;-72
2022/12/20 00:16:25;;;;;;;22.90;12.90;;;;;;;1.22;100.00;102222.91;5089464;28;20035;-73
2022/12/20 00:18:53;;;;;;;23.02;14.15;;;;;;;1.22;100.00;102230.59;5082732;28;20038;-73
2022/12/20 00:21:19;;;;;;;22.20;14.02;;;;;;;1.21;100.00;102231.50;5080749;28;20467;-73
2022/12/20 00:23:44;;;;;;;24.58;13.68;;;;;;;1.23;100.00;102219.47;5082500;28;20061;-72
2022/12/20 00:26:15;;;;;;;22.80;13.45;;;;;;;1.19;99.73;102225.56;5090401;28;20401;-73
2022/12/20 00:28:41;;;;;;;23.15;12.77;;;;;;;1.16;100.00;102228.22;5084005;28;20043;-73
2022/12/20 00:31:08;;;;;;;25.10;13.32;;;;;;;1.15;100.00;102221.38;5089758;28;20034;-72
2022/12/20 00:33:35;;;;;;;29.88;14.77;;;;;;;1.10;100.00;102225.81;5082822;28;20136;-72
2022/12/20 00:36:00;;;;;;;24.73;13.27;;;;;;;1.05;100.00;102220.78;5087307;28;20085;-73
2022/12/20 00:38:26;;;;;;;28.08;14.52;;;;;;;1.10;100.00;102228.38;5088894;28;20536;-73
2022/12/20 00:41:03;;;;;;;23.08;12.82;;;;;;;1.09;100.00;102226.69;5088745;28;20032;-72
2022/12/20 00:43:30;;;;;;;22.48;12.35;;;;;;;1.09;100.00;102229.25;5085484;28;20055;-73
2022/12/20 00:45:55;;;;;;;25.23;13.10;;;;;;;1.07;100.00;102231.84;5085931;28;20051;-73
2022/12/20 00:48:21;;;;;;;24.60;13.40;;;;;;;1.10;100.00;102230.94;5086529;28;20063;-74
2022/12/20 00:50:47;;;;;;;23.02;12.57;;;;;;;1.09;100.00;102221.56;5093662;28;20050;-73
2022/12/20 00:53:12;;;;;;;24.58;12.98;;;;;;;1.12;100.00;102221.47;5096004;28;20049;-73
2022/12/20 00:55:41;;;;;;;20.90;12.88;;;;;;;1.10;100.00;102233.50;5083211;28;20061;-73
2022/12/20 00:58:07;;;;;;;22.38;12.85;;;;;;;1.09;100.00;102230.09;5091419;28;20031;-74
2022/12/20 01:00:33;;;;;;;24.42;12.73;;;;;;;1.08;100.00;102225.84;5085916;28;20042;-73
2022/12/20 01:02:58;;;;;;;24.15;13.10;;;;;;;1.08;100.00;102232.69;5086731;28;20040;-73
2022/12/20 01:05:23;;;;;;;21.23;12.65;;;;;;;1.06;100.00;102234.47;5083309;28;20066;-73
2022/12/20 01:07:49;;;;;;;26.60;13.48;;;;;;;1.07;100.00;102228.44;5090156;28;20028;-73
2022/12/20 01:10:14;;;;;;;23.65;13.70;;;;;;;1.07;100.00;102229.28;5093279;28;20114;-73
2022/12/20 01:12:40;;;;;;;22.02;12.73;;;;;;;1.06;100.00;102222.47;5082793;28;20704;-73
2022/12/20 01:15:06;;;;;;;24.67;13.70;;;;;;;1.03;100.00;102216.56;5088156;28;20024;-73
2022/12/20 01:17:32;;;;;;;23.23;12.93;;;;;;;1.03;100.00;102216.56;5084983;28;20082;-73
2022/12/20 01:19:58;;;;;;;24.08;12.88;;;;;;;0.99;100.00;102221.78;5087340;28;20032;-73
2022/12/20 01:22:23;;;;;;;25.52;12.35;;;;;;;0.97;100.00;102221.00;5082304;28;20036;-73
2022/12/20 01:24:49;;;;;;;22.38;12.57;;;;;;;0.97;100.00;102213.28;5086695;28;20036;-73
2022/12/20 01:27:14;;;;;;;23.10;12.93;;;;;;;1.00;100.00;102218.34;5082850;28;20036;-73
2022/12/20 01:29:39;;;;;;;25.73;12.77;;;;;;;0.99;100.00;102226.91;5086305;28;20031;-73
2022/12/20 01:32:05;;;;;;;26.05;13.57;;;;;;;0.99;100.00;102213.25;5088647;28;20044;-73
2022/12/20 01:34:30;;;;;;;23.05;13.75;;;;;;;0.98;100.00;102209.84;5088954;28;20505;-73
2022/12/20 01:36:55;;;;;;;25.23;13.95;;;;;;;0.98;100.00;102209.84;5089945;28;20061;-73
2022/12/20 01:39:21;;;;;;;27.65;13.82;;;;;;;0.98;100.00;102214.97;5090298;28;20036;-73
2022/12/20 01:41:48;;;;;;;25.40;14.60;;;;;;;0.95;100.00;102215.06;5086142;28;20445;-72
2022/12/20 01:44:16;;;;;;;25.55;15.00;;;;;;;0.91;100.00;102205.78;5086826;28;20028;-73
2022/12/20 01:46:42;;;;;;;27.67;14.35;;;;;;;0.86;100.00;102205.06;5096699;28;20484;-72
2022/12/20 01:49:16;;;;;;;26.55;15.20;;;;;;;0.85;100.00;102199.97;5091492;28;20483;-73
2022/12/20 01:51:49;;;;;;;28.92;14.63;;;;;;;0.82;100.00;102202.59;5088320;28;20077;-73
2022/12/20 01:54:29;;;;;;;28.25;15.98;;;;;;;0.84;100.00;102196.56;5087901;28;20036;-73
2022/12/20 01:57:06;;;;;;;27.10;14.75;;;;;;;0.84;100.00;102196.56;5089766;28;20081;-73
2022/12/20 01:59:36;;;;;;;24.73;13.98;;;;;;;0.81;100.00;102196.63;5089481;28;21029;-73
2022/12/20 02:02:06;;;;;;;26.35;14.82;;;;;;;0.82;100.00;102187.22;5086695;28;20118;-73
2022/12/20 02:04:32;;;;;;;28.00;14.77;;;;;;;0.79;100.00;102190.69;5089609;28;20040;-72
2022/12/20 02:06:59;;;;;;;25.25;14.23;;;;;;;0.73;100.00;102188.28;5086776;28;20019;-73
2022/12/20 02:09:25;;;;;;;29.02;15.27;;;;;;;0.70;100.00;102183.22;5091847;28;20028;-72
2022/12/20 02:12:04;;;;;;;26.10;13.85;;;;;;;0.69;100.00;102170.44;5089470;28;20786;-72
2022/12/20 02:15:10;;;;;;;22.00;13.73;;;;;;;0.72;100.00;102173.78;5090411;28;20086;-73
2022/12/20 02:17:50;;;;;;;24.33;14.10;;;;;;;0.74;100.00;102163.47;5089751;28;20343;-73
2022/12/20 02:20:34;;;;;;;24.48;13.38;;;;;;;0.74;100.00;102161.75;5081241;28;20421;-73
2022/12/20 02:23:24;;;;;;;25.52;15.15;;;;;;;0.73;100.00;102162.63;5088763;28;20047;-73
2022/12/20 02:26:04;;;;;;;22.05;11.65;;;;;;;0.77;100.00;102156.53;5090903;28;20487;-72
2022/12/20 02:28:47;;;;;;;19.52;12.50;;;;;;;0.76;100.00;102152.28;5087343;28;20148;-72
2022/12/20 02:31:18;;;;;;;20.48;13.00;;;;;;;0.75;100.00;102154.91;5085909;28;20044;-73
2022/12/20 02:33:47;;;;;;;23.63;12.73;;;;;;;0.72;100.00;102145.56;5087084;28;20089;-73
2022/12/20 02:36:17;;;;;;;22.33;13.05;;;;;;;0.71;100.00;102143.88;5087533;28;20042;-73
2022/12/20 02:38:43;;;;;;;24.30;14.35;;;;;;;0.71;100.00;102145.59;5083217;28;20031;-73
2022/12/20 02:41:13;;;;;;;23.20;13.05;;;;;;;0.69;100.00;102144.78;5084623;28;20036;-73
2022/12/20 02:46:28;;;;;;;22.45;12.80;;;;;;;0.70;100.00;102151.59;5086978;28;20101;-73
2022/12/20 02:48:58;;;;;;;23.77;14.07;;;;;;;0.70;100.00;102144.75;5087702;28;20031;-73
2022/12/20 02:51:26;;;;;;;25.08;14.35;;;;;;;0.68;100.00;102138.81;5091267;28;20410;-72
2022/12/20 02:53:52;;;;;;;27.33;14.27;;;;;;;0.65;100.00;102141.47;5089004;28;20058;-72
2022/12/20 02:56:30;;;;;;;20.65;12.25;;;;;;;0.65;100.00;102144.03;5090215;28;20048;-72
2022/12/20 02:59:28;;;;;;;26.80;14.60;;;;;;;0.63;100.00;102143.22;5090347;28;20437;-73
2022/12/20 03:01:54;;;;;;;24.15;14.18;;;;;;;0.62;100.00;102138.97;5089514;28;20036;-71
2022/12/20 03:04:27;;;;;;;24.23;13.55;;;;;;;0.61;100.00;102137.28;5091180;28;20032;-73
2022/12/20 03:06:59;;;;;;;24.75;13.68;;;;;;;0.61;100.00;102132.16;5087147;28;20031;-73
2022/12/20 03:09:25;;;;;;;22.77;13.50;;;;;;;0.62;100.00;102133.84;5098664;28;20028;-73
2022/12/20 03:11:51;;;;;;;24.75;13.48;;;;;;;0.63;100.00;102128.69;5090110;28;20035;-73
2022/12/20 03:14:17;;;;;;;23.90;13.30;;;;;;;0.68;100.00;102122.59;5082395;28;20510;-73
2022/12/20 03:16:42;;;;;;;24.33;13.38;;;;;;;0.70;100.00;102121.66;5088071;28;20028;-73
2022/12/20 03:19:08;;;;;;;24.30;13.60;;;;;;;0.71;100.00;102119.94;5091104;28;20489;-72
2022/12/20 03:21:33;;;;;;;24.42;13.27;;;;;;;0.69;100.00;102119.13;5085280;28;20036;-73
2022/12/20 03:23:58;;;;;;;27.13;14.60;;;;;;;0.68;100.00;102122.59;5090054;28;20036;-72
2022/12/20 03:26:24;;;;;;;28.55;14.02;;;;;;;0.67;100.00;102121.75;5087099;28;20388;-72
2022/12/20 03:28:50;;;;;;;26.02;14.43;;;;;;;0.62;100.00;102113.31;5089489;28;20466;-73
2022/12/20 03:31:15;;;;;;;25.45;14.52;;;;;;;0.63;100.00;102120.13;5083039;28;20081;-74
2022/12/20 03:33:40;;;;;;;24.17;13.55;;;;;;;0.64;100.00;102114.13;5086228;28;20043;-73
2022/12/20 03:36:06;;;;;;;24.45;13.85;;;;;;;0.68;100.00;102108.03;5082921;28;20134;-72
2022/12/20 03:38:32;;;;;;;23.08;13.73;;;;;;;0.73;100.00;102111.31;5087914;28;20089;-72
2022/12/20 03:40:57;;;;;;;22.65;12.77;;;;;;;0.74;100.00;102095.03;5087826;28;20028;-72
2022/12/20 03:43:22;;;;;;;26.17;14.70;;;;;;;0.73;100.00;102098.50;5082947;28;20039;-72
2022/12/20 03:45:48;;;;;;;25.55;14.27;;;;;;;0.74;100.00;102097.59;5085259;28;20102;-73
2022/12/20 03:48:14;;;;;;;25.27;14.05;;;;;;;0.73;100.00;102093.38;5088438;28;20031;-72
2022/12/20 03:50:40;;;;;;;24.75;14.18;;;;;;;0.70;100.00;102088.31;5088965;28;20024;-72
2022/12/20 03:53:05;;;;;;;24.90;12.57;;;;;;;0.68;100.00;102089.22;5090060;28;20320;-73
2022/12/20 03:55:31;;;;;;;23.70;12.27;;;;;;;0.67;100.00;102090.97;5086016;28;20154;-72
2022/12/20 03:57:56;;;;;;;23.75;13.70;;;;;;;0.64;100.00;102094.44;5084712;28;20047;-72
2022/12/20 04:00:22;;;;;;;27.15;14.68;;;;;;;0.61;100.00;102099.66;5087234;28;20028;-73
2022/12/20 04:02:47;;;;;;;24.02;13.85;;;;;;;0.58;100.00;102101.47;5088090;28;20028;-72
2022/12/20 04:05:13;;;;;;;25.33;13.40;;;;;;;0.58;100.00;102102.31;5087205;28;20043;-72
2022/12/20 04:07:39;;;;;;;24.60;14.10;;;;;;;0.59;100.00;102108.28;5084864;28;20032;-72
2022/12/20 04:10:05;;;;;;;20.83;12.15;;;;;;;0.59;100.00;102098.00;5087921;28;20028;-72
2022/12/20 04:12:30;;;;;;;25.92;13.23;;;;;;;0.58;100.00;102099.75;5091711;28;20391;-71
2022/12/20 04:14:55;;;;;;;24.88;15.23;;;;;;;0.60;100.00;102099.69;5089543;28;20035;-72
2022/12/20 04:17:21;;;;;;;26.63;14.23;;;;;;;0.60;100.00;102092.00;5086590;28;20032;-72
2022/12/20 04:19:46;;;;;;;26.13;14.60;;;;;;;0.63;100.00;102091.91;5086739;28;20055;-72
2022/12/20 04:22:12;;;;;;;26.48;14.00;;;;;;;0.66;100.00;102091.84;5081854;28;20035;-72
2022/12/20 04:24:37;;;;;;;22.38;13.20;;;;;;;0.65;100.00;102093.56;5093205;28;20475;-72
2022/12/20 04:27:03;;;;;;;29.27;14.60;;;;;;;0.69;100.00;102083.22;5085474;28;20028;-74
2022/12/20 04:29:28;;;;;;;24.60;13.63;;;;;;;0.69;100.00;102093.47;5083651;28;20035;-73
2022/12/20 04:31:54;;;;;;;23.65;13.55;;;;;;;0.71;100.00;102095.13;5084282;28;20455;-72
2022/12/20 04:34:19;;;;;;;28.75;14.68;;;;;;;0.74;100.00;102087.34;5086510;28;20386;-72
2022/12/20 04:36:45;;;;;;;28.80;14.25;;;;;;;0.75;100.00;102089.03;5081849;28;20468;-72
2022/12/20 04:39:10;;;;;;;23.35;13.57;;;;;;;0.73;100.00;102085.66;5087541;28;20028;-72
2022/12/20 04:41:35;;;;;;;23.85;13.68;;;;;;;0.70;100.00;102084.91;5085921;28;20028;-75
2022/12/20 04:44:01;;;;;;;23.63;13.82;;;;;;;0.69;100.00;102089.19;5083226;28;20479;-74
2022/12/20 04:46:26;;;;;;;23.05;13.55;;;;;;;0.71;100.00;102092.56;5090083;28;20032;-75
2022/12/20 04:48:52;;;;;;;25.08;14.50;;;;;;;0.72;100.00;102083.97;5088337;28;20028;-74
2022/12/20 04:51:18;;;;;;;25.85;14.13;;;;;;;0.74;100.00;102087.34;5088083;28;20141;-73
2022/12/20 04:53:47;;;;;;;25.10;14.55;;;;;;;0.77;100.00;102084.69;5084683;28;20589;-73
2022/12/20 04:56:14;;;;;;;23.30;13.55;;;;;;;0.79;100.00;102085.50;5088460;28;20044;-72
2022/12/20 04:58:40;;;;;;;20.55;12.73;;;;;;;0.86;100.00;102081.88;5088178;28;20420;-73
2022/12/20 05:01:06;;;;;;;23.00;13.43;;;;;;;0.86;100.00;102087.00;5083065;28;20061;-72
2022/12/20 05:03:31;;;;;;;21.52;13.55;;;;;;;0.83;100.00;102079.41;5083707;28;20024;-73
2022/12/20 05:05:56;;;;;;;23.27;13.38;;;;;;;0.82;100.00;102070.03;5083627;28;20329;-72
2022/12/20 05:08:23;;;;;;;24.85;14.32;;;;;;;0.85;100.00;102069.09;5082138;28;20044;-72
2022/12/20 05:10:48;;;;;;;22.33;13.85;;;;;;;0.82;100.00;102075.16;5080933;28;20053;-73
2022/12/20 05:13:14;;;;;;;25.63;13.93;;;;;;;0.84;100.00;102067.41;5082580;28;20032;-73
2022/12/20 05:15:39;;;;;;;25.02;13.32;;;;;;;0.90;100.00;102070.66;5085389;28;20122;-72
2022/12/20 05:18:05;;;;;;;22.48;13.27;;;;;;;0.91;100.00;102080.03;5088586;28;20036;-72
2022/12/20 05:20:31;;;;;;;22.70;13.00;;;;;;;0.90;100.00;102074.94;5084965;28;20036;-72
2022/12/20 05:28:34;;;;;;;27.65;15.20;;;;;;;0.71;100.00;102066.91;5086486;28;20055;-72
2022/12/20 05:31:00;;;;;;;23.15;13.30;;;;;;;0.69;100.00;102063.53;5087368;28;20558;-72
2022/12/20 05:33:26;;;;;;;20.80;12.77;;;;;;;0.63;100.00;102066.28;5087765;28;20054;-72
2022/12/20 05:35:52;;;;;;;24.92;15.00;;;;;;;0.62;100.00;102067.16;5079658;28;20024;-72
2022/12/20 05:38:18;;;;;;;26.95;14.70;;;;;;;0.57;100.00;102063.88;5079537;28;20035;-72
2022/12/20 05:40:46;;;;;;;25.52;15.05;;;;;;;0.51;100.00;102064.88;5086122;28;20031;-72
2022/12/20 05:43:11;;;;;;;25.20;14.30;;;;;;;0.47;100.00;102063.31;5088871;28;20039;-72
2022/12/20 05:45:37;;;;;;;25.33;14.30;;;;;;;0.46;100.00;102065.91;5088358;28;20020;-72
2022/12/20 05:48:02;;;;;;;24.73;13.68;;;;;;;0.46;100.00;102068.47;5089031;28;20097;-72
2022/12/20 05:50:28;;;;;;;25.35;14.07;;;;;;;0.45;100.00;102071.91;5084089;28;20085;-72
2022/12/20 05:52:53;;;;;;;24.25;14.40;;;;;;;0.44;100.00;102062.53;5087556;28;20110;-72
2022/12/20 05:55:19;;;;;;;24.73;14.40;;;;;;;0.43;100.00;102066.84;5083819;28;20044;-72
2022/12/20 05:57:44;;;;;;;29.45;16.48;;;;;;;0.41;100.00;102068.59;5089936;28;20105;-72
2022/12/20 06:00:10;;;;;;;24.17;14.40;;;;;;;0.41;100.00;102065.19;5086377;28;20115;-70
2022/12/20 06:02:36;;;;;;;30.58;15.32;;;;;;;0.40;100.00;102055.81;5085651;28;20044;-70
2022/12/20 06:05:01;;;;;;;26.08;14.80;;;;;;;0.42;100.00;102054.06;5085834;28;20093;-72
2022/12/20 06:07:30;;;;;;;26.77;14.52;;;;;;;0.46;100.00;102053.09;5082411;28;20173;-71
2022/12/20 06:09:56;;;;;;;26.10;14.25;;;;;;;0.46;100.00;102050.53;5089349;28;20042;-72
2022/12/20 06:12:22;;;;;;;25.83;14.40;;;;;;;0.49;100.00;102047.84;5082743;28;20086;-72
2022/12/20 06:14:47;;;;;;;27.58;13.32;;;;;;;0.55;100.00;102050.25;5087738;28;20031;-71
2022/12/20 06:17:13;;;;;;;25.40;14.13;;;;;;;0.60;100.00;102044.09;5080041;28;20025;-72
2022/12/20 06:19:40;;;;;;;26.23;14.05;;;;;;;0.61;100.00;102039.81;5093657;28;20028;-72
2022/12/20 06:22:07;;;;;;;25.40;14.27;;;;;;;0.63;100.00;102043.19;5085912;28;20085;-73
2022/12/20 06:24:33;;;;;;;27.55;15.40;;;;;;;0.65;100.00;102047.38;5089446;28;20040;-71
2022/12/20 06:26:59;;;;;;;26.10;15.35;;;;;;;0.69;100.00;102040.44;5087517;28;20028;-72
2022/12/20 06:29:24;;;;;;;27.35;15.60;;;;;;;0.71;100.00;102048.94;5092571;28;20031;-72
2022/12/20 06:31:50;;;;;;;25.63;14.45;;;;;;;0.71;100.00;102046.38;5081277;28;20384;-72
2022/12/20 06:34:15;;;;;;;26.58;14.82;;;;;;;0.70;100.00;102047.25;5089517;28;20058;-72
2022/12/20 06:36:41;;;;;;;27.85;15.13;;;;;;;0.68;100.00;102051.59;5092253;28;20164;-72
2022/12/20 06:39:08;;;;;;;28.77;15.07;;;;;;;0.66;100.00;102059.34;5087132;28;20370;-72
2022/12/20 06:41:33;;;;;;;24.95;14.57;;;;;;;0.66;100.00;102059.34;5087965;28;20035;-72
2022/12/20 06:43:59;;;;;;;25.15;14.63;;;;;;;0.69;100.00;102048.16;5093869;28;20072;-72
2022/12/20 06:46:24;;;;;;;26.17;14.05;;;;;;;0.69;100.00;102045.59;5088107;28;20034;-72
2022/12/20 06:48:49;;;;;;;27.20;15.05;;;;;;;0.71;100.00;102048.94;5090143;28;20386;-72
2022/12/20 06:51:16;;;;;;;33.72;15.50;;;;;;;0.72;100.00;102048.06;5085742;28;20044;-72
2022/12/20 06:53:41;;;;;;;24.35;14.00;;;;;;;0.73;100.00;102052.31;5092924;28;20505;-72
2022/12/20 06:56:07;;;;;;;30.05;15.82;;;;;;;0.75;100.00;102052.28;5091998;28;20043;-73
2022/12/20 06:58:32;;;;;;;29.67;14.73;;;;;;;0.76;100.00;102054.78;5080573;28;20054;-73
2022/12/20 07:00:58;;;;;;;25.45;14.00;;;;;;;0.75;100.00;102047.13;5080047;28;20434;-72
2022/12/20 07:03:24;;;;;;;25.80;14.27;;;;;;;0.76;100.00;102047.09;5086071;28;20039;-71
2022/12/20 07:05:53;;;;;;;28.73;15.77;;;;;;;0.80;100.00;102043.56;5089837;28;20020;-72
2022/12/20 07:08:19;;;;;;;27.83;14.38;;;;;;;0.85;100.00;102041.72;5091232;28;20122;-72
2022/12/20 07:10:45;;;;;;;26.65;15.85;;;;;;;0.85;100.00;102054.53;5088624;28;20024;-72
2022/12/20 07:13:10;;;;;;;22.35;13.98;;;;;;;0.90;100.00;102047.53;5087952;28;20027;-71
2022/12/20 07:15:36;;;;;;;23.88;13.10;;;;;;;0.91;100.00;102049.22;5088383;28;20495;-72
2022/12/20 07:18:02;;;;;;;25.27;14.48;;;;;;;0.94;100.00;102045.75;5084743;28;20044;-72
2022/12/20 07:20:28;;;;;;;26.55;14.57;;;;;;;0.98;100.00;102045.56;5083623;28;20036;-73
2022/12/20 07:22:54;;;;;;;23.27;14.30;;;;;;;1.01;100.00;102047.22;5089298;28;20032;-72
2022/12/20 07:25:19;;;;;;;24.98;14.30;;;;;;;1.06;100.00;102057.34;5075971;28;20042;-72
2022/12/20 07:27:51;;;;;;;22.63;13.60;;;;;;;1.09;100.00;102058.09;5076453;28;20032;-72
2022/12/20 07:30:19;;;;;;;24.35;14.52;;;;;;;1.08;100.00;102043.59;5076913;28;20036;-71
2022/12/20 07:32:45;;;;;;;22.67;14.27;;;;;;;1.11;100.00;102046.06;5082177;28;20093;-72
2022/12/20 07:35:11;;;;;;;24.25;13.45;;;;;;;1.10;100.00;102033.28;5077838;28;20433;-73
2022/12/20 07:37:37;;;;;;;23.98;14.20;;;;;;;1.11;100.00;102046.06;5076372;28;20032;-72
2022/12/20 07:40:03;;;;;;;25.08;13.88;;;;;;;1.15;100.00;102041.69;5076251;28;20085;-72
2022/12/20 07:42:29;;;;;;;26.58;14.65;;;;;;;1.21;100.00;102054.34;5087458;28;20074;-73
2022/12/20 07:44:54;;;;;;;27.02;14.70;;;;;;;1.22;100.00;102053.44;5084855;28;20055;-73
2022/12/20 07:47:19;;;;;;;24.98;15.75;;;;;;;1.24;100.00;102044.81;5095136;27;20061;-73
2022/12/20 07:49:45;;;;;;;27.75;14.10;;;;;;;1.29;100.00;102050.66;5091072;28;20028;-73
2022/12/20 07:52:13;;;;;;;29.05;14.98;;;;;;;1.35;100.00;102048.78;5079641;28;20423;-72
2022/12/20 07:54:53;;;;;;;30.70;15.27;;;;;;;1.38;100.00;102044.41;5085514;28;20050;-73
2022/12/20 07:57:24;;;;;;;34.40;17.40;;;;;;;1.37;100.00;102050.41;5085342;28;20126;-73
2022/12/20 07:59:53;;;;;;;31.23;16.80;;;;;;;1.39;100.00;102051.22;5090032;28;20096;-73
2022/12/20 08:02:25;;;;;;;30.70;17.63;;;;;;;1.41;100.00;102039.16;5078841;28;20458;-72
2022/12/20 08:04:53;;;;;;;30.27;17.27;;;;;;;1.41;100.00;102046.03;5082037;28;20833;-73
2022/12/20 08:07:18;;;;;;;29.48;16.65;;;;;;;1.42;100.00;102056.22;5082521;28;20808;-72
2022/12/20 08:09:44;;;;;;;29.00;16.23;;;;;;;1.45;100.00;102061.28;5077065;28;20032;-73
2022/12/20 08:12:14;;;;;;;30.48;14.98;;;;;;;1.49;100.00;102049.16;5075200;28;20032;-73
2022/12/20 08:14:40;;;;;;;27.20;15.10;;;;;;;1.53;100.00;102045.63;5079357;28;20494;-73
2022/12/20 08:17:05;;;;;;;29.10;16.08;;;;;;;1.57;100.00;102053.19;5082888;28;20032;-73
2022/12/20 08:19:31;;;;;;;29.52;16.48;;;;;;;1.56;100.00;102046.38;5090158;28;20034;-73
2022/12/20 08:21:56;;;;;;;28.13;15.65;;;;;;;1.51;100.00;102043.09;5085990;28;20032;-73
2022/12/20 08:24:22;;;;;;;26.88;13.93;;;;;;;1.55;100.00;102046.41;5079700;28;20503;-74
2022/12/20 08:26:47;;;;;;;26.50;14.07;;;;;;;1.61;100.00;102047.06;5081198;28;20491;-72
2022/12/20 08:29:13;;;;;;;36.58;16.05;;;;;;;1.68;100.00;102050.28;5088571;28;20075;-72
2022/12/20 08:31:41;;;;;;;28.70;15.73;;;;;;;1.76;100.00;102050.03;5087833;28;20024;-73
2022/12/20 08:34:07;;;;;;;31.88;16.60;;;;;;;1.78;100.00;102049.09;5073300;28;20111;-73
2022/12/20 08:36:33;;;;;;;31.45;15.75;;;;;;;1.82;100.00;102047.28;5074439;28;20055;-72
2022/12/20 08:39:04;;;;;;;26.63;15.40;;;;;;;1.85;100.00;102047.19;5074300;28;20730;-73
2022/12/20 08:41:29;;;;;;;32.28;16.40;;;;;;;1.83;100.00;102046.38;5076992;28;20470;-73
2022/12/20 08:43:55;;;;;;;22.40;13.55;;;;;;;1.82;100.00;102042.13;5079072;28;20047;-73
2022/12/20 08:46:20;;;;;;;23.38;13.70;;;;;;;1.84;100.00;102048.91;5079561;28;20023;-73
2022/12/20 08:48:46;;;;;;;28.23;14.07;;;;;;;1.88;100.00;102049.66;5079115;28;20032;-73
2022/12/20 08:51:11;;;;;;;25.80;13.98;;;;;;;1.87;100.00;102043.66;5089439;28;20056;-73
2022/12/20 08:53:37;;;;;;;28.63;15.38;;;;;;;1.88;100.00;102049.66;5082902;28;20194;-73
2022/12/20 08:56:13;;;;;;;29.30;15.20;;;;;;;1.94;100.00;102050.25;5084560;28;20032;-73
2022/12/20 08:58:39;;;;;;;26.73;14.63;;;;;;;1.96;100.00;102048.47;5084925;28;20039;-72
2022/12/20 09:01:07;;;;;;;23.50;14.13;;;;;;;1.96;100.00;102050.19;5077204;28;20044;-72
2022/12/20 09:03:35;;;;;;;25.75;14.20;;;;;;;1.95;100.00;102046.78;5081567;28;20122;-72
2022/12/20 09:06:03;;;;;;;24.40;13.55;;;;;;;1.97;100.00;102044.19;5088903;28;20502;-73
2022/12/20 09:08:29;;;;;;;25.85;14.40;;;;;;;1.94;100.00;102041.69;5082818;28;20119;-73
2022/12/20 09:11:06;;;;;;;25.63;14.77;;;;;;;1.96;100.00;102047.63;5088106;28;20181;-72
2022/12/20 09:13:32;;;;;;;27.42;14.95;;;;;;;2.00;100.00;102042.34;5092086;28;20032;-72
2022/12/20 09:16:02;;;;;;;25.38;15.05;;;;;;;2.08;100.00;102042.09;5086990;28;20028;-73
2022/12/20 09:18:27;;;;;;;24.38;14.80;;;;;;;2.18;100.00;102045.19;5081134;28;20032;-72
2022/12/20 09:20:52;;;;;;;25.73;15.23;;;;;;;2.23;100.00;102043.31;5085683;28;20028;-73
2022/12/20 09:23:18;;;;;;;24.13;14.52;;;;;;;2.25;100.00;102038.94;5086739;28;20043;-73
2022/12/20 09:25:44;;;;;;;22.75;13.27;;;;;;;2.31;100.00;102042.16;5088297;28;20024;-73
2022/12/20 09:28:10;;;;;;;25.55;14.40;;;;;;;2.39;100.00;102030.72;5087807;28;20047;-72
2022/12/20 09:30:35;;;;;;;22.20;13.32;;;;;;;2.44;100.00;102024.53;5079227;28;20044;-73
2022/12/20 09:33:01;;;;;;;23.75;13.63;;;;;;;2.47;100.00;102033.88;5077841;28;20085;-73
2022/12/20 09:35:27;;;;;;;26.13;13.68;;;;;;;2.51;100.00;102035.44;5080881;28;20032;-73
2022/12/20 09:37:52;;;;;;;21.10;13.50;;;;;;;2.55;100.00;102034.44;5089293;28;20047;-72
2022/12/20 09:40:20;;;;;;;23.10;14.07;;;;;;;2.54;100.00;102020.75;5083840;28;20039;-74
2022/12/20 09:42:47;;;;;;;27.92;14.05;;;;;;;2.62;100.00;102023.88;5087452;28;20051;-74
2022/12/20 09:45:23;;;;;;;24.33;15.35;;;;;;;2.67;100.00;102021.13;5083635;28;20028;-74
2022/12/20 09:47:49;;;;;;;24.92;14.32;;;;;;;2.71;100.00;102017.56;5084111;28;20558;-74
2022/12/20 09:50:16;;;;;;;25.10;14.02;;;;;;;2.74;100.00;102020.03;5087063;28;20115;-73
2022/12/20 09:52:45;;;;;;;25.13;14.25;;;;;;;2.77;100.00;102007.03;5080624;28;20020;-74
2022/12/20 09:55:21;;;;;;;23.27;14.02;;;;;;;2.85;100.00;102011.88;5090132;28;20056;-73
2022/12/20 09:57:49;;;;;;;21.60;13.43;;;;;;;2.88;100.00;101997.16;5084595;28;20104;-74
2022/12/20 10:00:17;;;;;;;23.83;14.18;;;;;;;2.95;100.00;102002.91;5089445;28;20024;-74
2022/12/20 10:02:43;;;;;;;23.42;14.82;;;;;;;2.98;100.00;102001.06;5092027;28;20032;-74
2022/12/20 10:05:15;;;;;;;23.40;14.40;;;;;;;2.97;100.00;101993.41;5090219;28;20039;-74
2022/12/20 10:07:52;;;;;;;25.45;14.57;;;;;;;2.97;100.00;101986.50;5091610;28;20135;-74
2022/12/20 10:10:20;;;;;;;26.38;14.88;;;;;;;3.02;100.00;101990.66;5087587;28;20036;-74
2022/12/20 10:13:24;;;;;;;20.98;14.40;;;;;;;3.03;99.33;101982.03;5092585;28;20034;-74
2022/12/20 10:15:56;;;;;;;26.23;14.13;;;;;;;3.10;99.73;101978.31;5003665;28;20041;-74
2022/12/20 10:18:31;;;;;;;25.38;14.48;;;;;;;3.16;100.00;101978.09;5005510;28;20164;-75
2022/12/20 10:21:16;;;;;;;21.00;13.70;;;;;;;3.21;98.33;101978.75;5011778;28;20038;-75
2022/12/20 10:23:49;;;;;;;24.75;12.93;;;;;;;3.25;99.30;101980.31;5018929;28;20038;-75
2022/12/20 10:26:14;;;;;;;24.15;13.90;;;;;;;3.28;99.75;101973.28;5006653;28;20090;-75
2022/12/20 10:28:40;;;;;;;24.55;14.90;;;;;;;3.34;99.44;101972.19;5005668;28;20034;-75
2022/12/20 10:31:11;;;;;;;37.78;20.73;;;;;;;3.38;98.98;101972.91;5011898;28;20030;-75
2022/12/20 10:33:36;;;;;;;46.58;24.23;;;;;;;3.38;99.12;101963.44;5006694;28;20042;-75
2022/12/20 10:36:31;;;;;;;67.68;33.35;;;;;;;3.43;98.15;101961.50;5014940;28;20038;-75
2022/12/20 10:39:05;;;;;;;68.60;32.10;;;;;;;3.48;98.27;101945.88;5010038;28;20057;-75
2022/12/20 10:41:50;;;;;;;74.20;35.53;;;;;;;3.52;98.16;101937.94;5010090;28;20278;-75
2022/12/20 10:44:24;;;;;;;82.95;39.72;;;;;;;3.63;99.08;101937.50;5003920;28;20493;-75
2022/12/20 10:47:00;;;;;;;64.95;35.05;;;;;;;3.75;98.76;101939.56;5001950;28;20100;-74
2022/12/20 10:49:37;;;;;;;46.88;25.08;;;;;;;3.86;98.58;101929.59;5004721;28;20038;-75
2022/12/20 10:52:11;;;;;;;30.60;17.75;;;;;;;3.92;97.97;101931.94;5046151;28;20470;-74
2022/12/20 10:54:38;;;;;;;31.38;18.40;;;;;;;3.95;96.70;101930.97;5082988;28;20144;-74
2022/12/20 10:57:25;;;;;;;27.90;16.92;;;;;;;3.95;96.52;101929.22;5082887;28;20067;-74
2022/12/20 10:59:51;;;;;;;25.58;15.98;;;;;;;4.00;98.63;101926.44;5091647;28;20028;-74
2022/12/20 11:02:31;;;;;;;25.73;16.10;;;;;;;4.01;98.31;101928.13;5087368;28;20028;-74
2022/12/20 11:05:18;;;;;;;23.33;14.25;;;;;;;4.07;99.05;101917.53;5084763;28;20109;-74
2022/12/20 11:07:57;;;;;;;25.45;13.90;;;;;;;4.11;97.23;101925.97;5091039;28;20040;-74
2022/12/20 11:10:26;;;;;;;23.90;13.77;;;;;;;4.12;98.22;101910.44;5095291;28;20061;-75
2022/12/20 11:12:59;;;;;;;27.15;14.07;;;;;;;4.11;98.26;101907.94;5090115;28;20360;-75
2022/12/20 11:15:31;;;;;;;26.05;14.38;;;;;;;4.11;97.38;101913.91;5095266;28;20024;-74
2022/12/20 11:18:14;;;;;;;25.73;15.10;;;;;;;4.12;97.41;101905.28;5090624;28;20500;-75
2022/12/20 11:20:57;;;;;;;47.85;24.13;;;;;;;4.10;97.05;101896.78;5090921;28;20035;-74
2022/12/20 11:23:40;;;;;;;56.55;27.98;;;;;;;4.09;97.75;101892.50;5087015;28;20040;-75